createdAt,value
2018-08-12T00:00:29.416Z,96.90
2018-08-12T00:02:59.533Z,97.00
2018-08-12T00:05:28.549Z,97.40
2018-08-12T00:07:57.650Z,97.50
2018-08-12T00:10:26.868Z,97.30
2018-08-12T00:12:55.976Z,97.00
2018-08-12T00:15:25.007Z,97.00
2018-08-12T00:17:54.032Z,97.00
2018-08-12T00:20:23.773Z,97.00
2018-08-12T00:22:52.833Z,97.00
2018-08-12T00:25:23.293Z,97.00
2018-08-12T00:27:52.380Z,97.10
2018-08-12T00:30:23.868Z,97.10
2018-08-12T00:32:52.967Z,97.30
2018-08-12T00:35:22.023Z,97.30
2018-08-12T00:37:51.119Z,97.40
2018-08-12T00:40:20.133Z,97.30
2018-08-12T00:42:50.145Z,97.20
2018-08-12T00:45:20.929Z,97.10
2018-08-12T00:47:50.431Z,97.00
2018-08-12T00:50:20.304Z,97.10
2018-08-12T00:52:49.396Z,97.20
2018-08-12T00:55:18.760Z,97.20
2018-08-12T00:57:48.532Z,96.90
2018-08-12T01:00:19.855Z,97.50
2018-08-12T01:02:49.024Z,97.30
2018-08-12T01:05:18.980Z,97.60
2018-08-12T01:07:49.040Z,97.70
2018-08-12T01:10:18.724Z,97.30
2018-08-12T01:12:47.791Z,97.10
2018-08-12T01:15:19.783Z,97.10
2018-08-12T01:17:48.899Z,97.40
2018-08-12T01:20:22.737Z,97.70
2018-08-12T01:22:51.826Z,97.50
2018-08-12T01:25:21.385Z,97.90
2018-08-12T01:27:50.434Z,98.10
2018-08-12T01:30:20.878Z,98.50
2018-08-12T01:32:50.148Z,99.10
2018-08-12T01:35:19.509Z,99.30
2018-08-12T01:37:49.515Z,99.50
2018-08-12T01:40:19.564Z,99.60
2018-08-12T01:42:48.585Z,99.90
2018-08-12T01:45:19.279Z,99.90
2018-08-12T01:47:48.428Z,99.90
2018-08-12T01:50:18.965Z,99.90
2018-08-12T01:52:47.963Z,99.90
2018-08-12T01:55:17.237Z,99.90
2018-08-12T01:57:46.279Z,99.90
2018-08-12T02:00:17.703Z,99.90
2018-08-12T02:02:47.428Z,99.90
2018-08-12T02:05:17.112Z,99.90
2018-08-12T02:07:46.162Z,99.90
2018-08-12T02:10:15.284Z,99.90
2018-08-12T02:12:44.437Z,99.90
2018-08-12T02:15:13.524Z,99.90
2018-08-12T02:34:43.973Z,99.90
2018-08-12T02:37:13.033Z,99.90
2018-08-12T02:39:42.035Z,99.90
2018-08-12T02:42:11.094Z,99.90
2018-08-12T02:44:40.078Z,99.90
2018-08-12T02:47:09.121Z,99.90
2018-08-12T02:49:38.119Z,99.90
2018-08-12T02:52:07.205Z,99.90
2018-08-12T02:54:36.205Z,99.90
2018-08-12T02:57:05.246Z,99.90
2018-08-12T02:59:34.284Z,99.90
2018-08-12T03:02:03.325Z,99.90
2018-08-12T03:04:32.300Z,99.90
2018-08-12T03:07:01.365Z,99.90
2018-08-12T03:09:30.585Z,99.90
2018-08-12T03:11:59.878Z,99.90
2018-08-12T03:14:28.840Z,99.90
2018-08-12T03:16:57.895Z,99.90
2018-08-12T03:19:26.991Z,99.90
2018-08-12T03:21:56.046Z,99.90
2018-08-12T03:24:25.172Z,99.90
2018-08-12T03:26:54.182Z,99.90
2018-08-12T03:29:23.196Z,99.90
2018-08-12T03:31:52.244Z,99.90
2018-08-12T03:34:21.288Z,99.90
2018-08-12T03:36:50.332Z,99.90
2018-08-12T03:39:19.320Z,99.90
2018-08-12T03:41:48.280Z,99.90
2018-08-12T03:44:17.367Z,99.90
2018-08-12T03:46:46.472Z,99.90
2018-08-12T03:49:15.574Z,99.90
2018-08-12T03:51:45.307Z,99.90
2018-08-12T03:54:14.300Z,99.90
2018-08-12T03:56:43.309Z,99.90
2018-08-12T03:59:12.300Z,99.90
2018-08-12T04:01:41.345Z,99.90
2018-08-12T04:04:10.372Z,99.90
2018-08-12T04:06:39.397Z,99.90
2018-08-12T04:09:09.768Z,99.90
2018-08-12T04:11:38.773Z,99.90
2018-08-12T04:14:07.808Z,99.90
2018-08-12T04:16:36.873Z,99.90
2018-08-12T04:19:06.379Z,99.90
2018-08-12T04:21:35.321Z,99.90
2018-08-12T04:24:04.380Z,99.90
2018-08-12T04:26:33.486Z,99.90
2018-08-12T04:29:02.517Z,99.90
2018-08-12T04:31:31.520Z,99.90
2018-08-12T04:34:01.054Z,99.90
2018-08-12T04:36:30.081Z,99.90
2018-08-12T04:38:59.114Z,99.90
2018-08-12T04:41:28.123Z,99.90
2018-08-12T04:43:57.149Z,99.90
2018-08-12T04:46:26.763Z,99.90
2018-08-12T04:48:55.779Z,99.90
2018-08-12T04:51:25.473Z,99.90
2018-08-12T04:53:54.511Z,99.90
2018-08-12T04:56:23.529Z,99.90
2018-08-12T04:58:52.649Z,99.90
2018-08-12T05:01:21.749Z,99.90
2018-08-12T05:03:50.948Z,99.90
2018-08-12T05:06:20.075Z,99.90
2018-08-12T05:08:49.136Z,99.90
2018-08-12T05:11:18.545Z,99.90
2018-08-12T05:13:47.542Z,99.90
2018-08-12T05:16:16.608Z,99.90
2018-08-12T05:18:45.757Z,99.90
2018-08-12T05:21:14.824Z,99.90
2018-08-12T05:23:43.829Z,99.90
2018-08-12T05:26:12.860Z,99.90
2018-08-12T05:28:41.923Z,99.90
2018-08-12T05:31:10.998Z,99.90
2018-08-12T05:33:40.063Z,99.90
2018-08-12T05:36:09.148Z,99.90
2018-08-12T05:38:38.919Z,99.90
2018-08-12T05:41:09.700Z,99.90
2018-08-12T05:43:38.700Z,99.90
2018-08-12T05:46:07.829Z,99.90
2018-08-12T05:48:36.866Z,99.90
2018-08-12T05:51:05.894Z,99.90
2018-08-12T05:53:34.943Z,99.90
2018-08-12T05:56:04.104Z,99.90
2018-08-12T05:58:33.097Z,99.90
2018-08-12T06:01:02.149Z,99.90
2018-08-12T06:03:31.221Z,99.90
2018-08-12T06:06:00.289Z,99.90
2018-08-12T06:08:29.324Z,99.90
2018-08-12T06:10:58.491Z,99.90
2018-08-12T06:13:27.535Z,99.90
2018-08-12T06:15:56.568Z,99.90
2018-08-12T06:18:25.564Z,99.90
2018-08-12T06:20:54.585Z,99.70
2018-08-12T06:23:23.679Z,99.80
2018-08-12T06:25:52.641Z,99.80
2018-08-12T06:28:21.692Z,99.10
2018-08-12T06:30:51.713Z,99.30
2018-08-12T06:33:21.039Z,99.00
2018-08-12T06:35:50.062Z,99.80
2018-08-12T06:38:19.121Z,98.70
2018-08-12T06:40:48.196Z,98.60
2018-08-12T06:43:17.271Z,98.10
2018-08-12T06:45:46.304Z,98.10
2018-08-12T06:48:15.465Z,98.50
2018-08-12T06:50:44.516Z,99.70
2018-08-12T06:53:13.553Z,97.70
2018-08-12T06:55:42.613Z,97.70
2018-08-12T06:58:12.296Z,97.70
2018-08-12T07:00:41.339Z,96.80
2018-08-12T07:03:10.415Z,96.90
2018-08-12T07:05:39.633Z,96.50
2018-08-12T07:08:08.740Z,96.00
2018-08-12T07:10:37.776Z,96.10
2018-08-12T07:13:06.768Z,94.50
2018-08-12T07:15:35.879Z,94.90
2018-08-12T07:18:05.133Z,94.90
2018-08-12T07:20:34.141Z,94.20
2018-08-12T07:23:03.255Z,93.40
2018-08-12T07:25:32.314Z,93.50
2018-08-12T07:28:01.372Z,92.80
2018-08-12T07:30:30.420Z,93.50
2018-08-12T07:33:00.157Z,93.20
2018-08-12T07:35:29.244Z,93.30
2018-08-12T07:37:58.629Z,92.60
2018-08-12T07:40:27.733Z,92.50
2018-08-12T07:42:56.771Z,92.90
2018-08-12T07:45:25.805Z,92.70
2018-08-12T07:47:54.895Z,92.20
2018-08-12T07:50:23.965Z,90.90
2018-08-12T07:52:52.954Z,91.60
2018-08-12T07:55:22.040Z,92.50
2018-08-12T07:57:51.603Z,91.80
2018-08-12T08:00:21.352Z,91.20
2018-08-12T08:02:50.397Z,91.70
2018-08-12T08:05:20.245Z,92.80
2018-08-12T08:07:49.342Z,92.30
2018-08-12T08:10:18.451Z,92.00
2018-08-12T08:12:48.225Z,91.40
2018-08-12T08:15:19.791Z,91.80
2018-08-12T08:17:49.253Z,90.80
2018-08-12T08:20:18.313Z,96.20
2018-08-12T08:22:47.403Z,93.60
2018-08-12T08:25:16.500Z,94.90
2018-08-12T08:27:45.588Z,95.50
2018-08-12T08:30:16.461Z,93.60
2018-08-12T08:32:45.672Z,99.90
2018-08-12T08:35:14.805Z,98.00
2018-08-12T08:37:44.072Z,99.90
2018-08-12T08:40:14.882Z,92.30
2018-08-12T08:42:44.396Z,89.00
2018-08-12T08:45:15.939Z,88.90
2018-08-12T08:47:47.053Z,90.40
2018-08-12T08:50:17.096Z,96.20
2018-08-12T08:52:46.220Z,90.80
2018-08-12T08:55:15.897Z,90.90
2018-08-12T08:57:45.696Z,91.30
2018-08-12T09:00:16.727Z,92.80
2018-08-12T09:02:47.387Z,85.50
2018-08-12T09:05:16.993Z,83.50
2018-08-12T09:07:46.299Z,83.60
2018-08-12T09:10:17.150Z,87.20
2018-08-12T09:12:46.253Z,91.20
2018-08-12T09:15:17.016Z,79.80
2018-08-12T09:17:46.702Z,89.70
2018-08-12T09:20:17.704Z,76.60
2018-08-12T09:22:46.795Z,72.10
2018-08-12T09:25:16.177Z,70.10
2018-08-12T09:27:45.266Z,73.70
2018-08-12T09:30:18.581Z,66.60
2018-08-12T09:32:48.208Z,65.10
2018-08-12T09:35:18.090Z,62.00
2018-08-12T09:37:47.148Z,60.20
2018-08-12T09:40:17.539Z,57.60
2018-08-12T09:42:48.102Z,55.60
2018-08-12T09:45:19.085Z,52.00
2018-08-12T09:47:48.189Z,51.50
2018-08-12T09:50:18.545Z,48.60
2018-08-12T09:52:48.728Z,48.10
2018-08-12T09:55:18.496Z,45.70
2018-08-12T09:57:47.582Z,50.30
2018-08-12T10:00:23.067Z,44.00
2018-08-12T10:02:53.763Z,47.50
2018-08-12T10:05:23.305Z,43.90
2018-08-12T10:07:52.549Z,43.20
2018-08-12T10:10:21.705Z,41.10
2018-08-12T10:12:50.816Z,40.90
2018-08-12T10:15:19.918Z,39.40
2018-08-12T10:17:52.411Z,38.60
2018-08-12T10:20:21.557Z,38.50
2018-08-12T10:22:50.705Z,43.90
2018-08-12T10:25:21.176Z,40.00
2018-08-12T10:27:50.823Z,39.30
2018-08-12T10:30:20.546Z,39.00
2018-08-12T10:32:49.661Z,38.00
2018-08-12T10:35:18.909Z,38.00
2018-08-12T10:37:47.988Z,37.30
2018-08-12T10:40:19.719Z,36.70
2018-08-12T10:42:49.718Z,36.00
2018-08-12T10:45:18.777Z,35.70
2018-08-12T10:47:47.950Z,36.70
2018-08-12T10:50:18.353Z,35.50
2018-08-12T10:52:48.359Z,34.80
2018-08-12T10:55:19.064Z,35.90
2018-08-12T10:57:48.184Z,36.20
2018-08-12T11:00:21.540Z,35.50
2018-08-12T11:02:50.734Z,36.70
2018-08-12T11:05:19.748Z,35.90
2018-08-12T11:07:51.872Z,35.60
2018-08-12T11:10:21.040Z,35.30
2018-08-12T11:12:50.923Z,35.20
2018-08-12T11:15:19.905Z,34.70
2018-08-12T11:17:49.224Z,32.90
2018-08-12T11:20:19.073Z,34.10
2018-08-12T11:22:48.072Z,34.90
2018-08-12T11:25:17.147Z,34.10
2018-08-12T11:27:48.153Z,33.10
2018-08-12T11:30:18.384Z,31.70
2018-08-12T11:32:47.513Z,31.50
2018-08-12T11:35:17.716Z,31.90
2018-08-12T11:37:46.915Z,31.40
2018-08-12T11:40:16.422Z,31.80
2018-08-12T11:42:45.520Z,30.70
2018-08-12T11:45:17.136Z,30.90
2018-08-12T11:47:47.156Z,30.60
2018-08-12T11:50:17.163Z,30.60
2018-08-12T11:52:48.253Z,33.00
2018-08-12T11:55:18.720Z,32.30
2018-08-12T11:57:47.897Z,33.80
2018-08-12T12:00:18.700Z,34.00
2018-08-12T12:02:49.254Z,33.80
2018-08-12T12:05:18.389Z,33.00
2018-08-12T12:07:47.480Z,34.20
2018-08-12T12:10:18.502Z,33.40
2018-08-12T12:12:48.827Z,33.20
2018-08-12T12:15:18.209Z,34.40
2018-08-12T12:17:47.924Z,36.60
2018-08-12T12:20:18.193Z,37.60
2018-08-12T12:22:47.853Z,37.00
2018-08-12T12:25:18.372Z,37.90
2018-08-12T12:27:47.465Z,37.40
2018-08-12T12:30:18.025Z,40.00
2018-08-12T12:32:48.727Z,40.60
2018-08-12T12:35:17.924Z,40.70
2018-08-12T12:37:47.833Z,41.90
2018-08-12T12:40:17.970Z,43.10
2018-08-12T12:42:47.543Z,42.90
2018-08-12T12:45:16.880Z,42.80
2018-08-12T12:47:46.577Z,42.80
2018-08-12T12:50:18.373Z,43.60
2018-08-12T12:52:48.679Z,43.50
2018-08-12T12:55:18.536Z,44.70
2018-08-12T12:57:47.632Z,44.40
2018-08-12T13:00:18.425Z,44.80
2018-08-12T13:02:47.880Z,45.00
2018-08-12T13:05:18.130Z,45.40
2018-08-12T13:07:48.172Z,43.90
2018-08-12T13:10:18.145Z,45.90
2018-08-12T13:12:47.274Z,45.50
2018-08-12T13:15:17.186Z,44.70
2018-08-12T13:17:46.312Z,44.90
2018-08-12T13:20:18.478Z,44.20
2018-08-12T13:22:48.600Z,43.60
2018-08-12T13:25:19.523Z,45.40
2018-08-12T13:27:48.625Z,44.50
2018-08-12T13:30:18.703Z,45.70
2018-08-12T13:32:48.940Z,44.00
2018-08-12T13:35:18.061Z,44.30
2018-08-12T13:37:47.825Z,45.00
2018-08-12T13:40:17.626Z,43.90
2018-08-12T13:42:47.036Z,44.40
2018-08-12T13:45:16.404Z,45.00
2018-08-12T13:47:46.149Z,43.60
2018-08-12T13:50:19.934Z,42.50
2018-08-12T13:52:50.193Z,43.20
2018-08-12T13:55:19.872Z,42.40
2018-08-12T13:57:49.761Z,42.70
2018-08-12T14:00:21.535Z,44.40
2018-08-12T14:02:50.687Z,44.50
2018-08-12T14:05:20.337Z,43.20
2018-08-12T14:07:50.152Z,42.90
2018-08-12T14:10:19.800Z,43.40
2018-08-12T14:12:48.875Z,45.00
2018-08-12T14:15:18.996Z,44.50
2018-08-12T14:17:48.905Z,43.30
2018-08-12T14:20:20.171Z,43.40
2018-08-12T14:22:50.058Z,43.30
2018-08-12T14:25:19.111Z,43.10
2018-08-12T14:27:48.272Z,41.90
2018-08-12T14:30:19.070Z,42.20
2018-08-12T14:32:48.692Z,42.60
2018-08-12T14:35:17.884Z,41.80
2018-08-12T14:37:47.336Z,42.50
2018-08-12T14:40:16.527Z,44.00
2018-08-12T14:42:45.621Z,41.40
2018-08-12T14:45:15.535Z,42.30
2018-08-12T14:47:45.188Z,41.80
2018-08-12T14:50:17.240Z,41.30
2018-08-12T14:52:46.540Z,41.40
2018-08-12T14:55:17.228Z,42.80
2018-08-12T14:57:46.378Z,42.00
2018-08-12T15:00:17.021Z,42.30
2018-08-12T15:02:47.737Z,41.90
2018-08-12T15:05:17.255Z,41.60
2018-08-12T15:07:46.468Z,42.80
2018-08-12T15:10:15.545Z,43.00
2018-08-12T15:12:45.249Z,42.70
2018-08-12T15:15:15.740Z,42.30
2018-08-12T15:17:45.469Z,43.30
2018-08-12T15:20:15.792Z,41.90
2018-08-12T15:22:45.147Z,42.00
2018-08-12T15:25:17.480Z,41.80
2018-08-12T15:27:46.771Z,42.50
2018-08-12T15:30:15.934Z,42.00
2018-08-12T15:32:45.218Z,41.50
2018-08-12T15:35:14.427Z,41.60
2018-08-12T15:37:43.497Z,41.10
2018-08-12T15:40:13.972Z,42.20
2018-08-12T15:42:43.612Z,43.70
2018-08-12T15:45:15.521Z,41.20
2018-08-12T15:47:45.427Z,41.40
2018-08-12T15:50:14.948Z,41.80
2018-08-12T15:52:45.324Z,41.20
2018-08-12T15:55:14.848Z,40.70
2018-08-12T15:57:43.987Z,41.50
2018-08-12T16:00:16.220Z,40.90
2018-08-12T16:02:45.692Z,42.50
2018-08-12T16:05:14.836Z,41.00
2018-08-12T16:07:44.928Z,41.90
2018-08-12T16:10:17.475Z,42.30
2018-08-12T16:12:47.913Z,42.60
2018-08-12T16:15:17.187Z,41.60
2018-08-12T16:17:46.350Z,42.40
2018-08-12T16:20:15.432Z,41.90
2018-08-12T16:22:44.548Z,41.90
2018-08-12T16:25:16.273Z,42.30
2018-08-12T16:27:45.764Z,42.90
2018-08-12T16:30:17.011Z,40.90
2018-08-12T16:32:46.356Z,42.80
2018-08-12T16:35:16.687Z,41.70
2018-08-12T16:37:46.410Z,41.60
2018-08-12T16:40:17.179Z,42.10
2018-08-12T16:42:47.943Z,41.90
2018-08-12T16:45:17.724Z,41.70
2018-08-12T16:47:47.273Z,42.60
2018-08-12T16:50:17.476Z,43.90
2018-08-12T16:52:47.714Z,42.80
2018-08-12T16:55:18.103Z,41.80
2018-08-12T16:57:47.679Z,40.90
2018-08-12T17:00:18.646Z,41.00
2018-08-12T17:02:48.109Z,42.60
2018-08-12T17:05:19.512Z,42.90
2018-08-12T17:07:48.873Z,42.10
2018-08-12T17:10:18.545Z,41.30
2018-08-12T17:12:47.597Z,42.00
2018-08-12T17:15:19.069Z,42.30
2018-08-12T17:17:48.879Z,40.90
2018-08-12T17:20:19.323Z,41.30
2018-08-12T17:22:48.833Z,41.40
2018-08-12T17:25:18.115Z,42.60
2018-08-12T17:27:47.288Z,41.60
2018-08-12T17:30:17.227Z,41.20
2018-08-12T17:32:46.356Z,41.60
2018-08-12T17:35:15.487Z,42.10
2018-08-12T17:37:45.618Z,41.90
2018-08-12T17:40:16.765Z,41.00
2018-08-12T17:42:45.952Z,42.40
2018-08-12T17:45:15.427Z,42.60
2018-08-12T17:47:44.615Z,42.70
2018-08-12T17:50:15.721Z,43.00
2018-08-12T17:52:45.002Z,43.80
2018-08-12T17:55:14.060Z,43.00
2018-08-12T17:57:43.216Z,43.60
2018-08-12T18:00:15.379Z,43.70
2018-08-12T18:02:45.824Z,43.60
2018-08-12T18:05:15.044Z,43.60
2018-08-12T18:07:44.474Z,44.00
2018-08-12T18:10:14.050Z,43.80
2018-08-12T18:12:43.089Z,43.70
2018-08-12T18:15:12.569Z,44.40
2018-08-12T18:17:42.367Z,44.00
2018-08-12T18:20:11.691Z,44.30
2018-08-12T18:22:40.807Z,44.30
2018-08-12T18:25:11.345Z,45.40
2018-08-12T18:27:40.531Z,44.50
2018-08-12T18:30:12.809Z,45.00
2018-08-12T18:32:41.927Z,46.30
2018-08-12T18:35:11.732Z,45.80
2018-08-12T18:37:41.217Z,45.10
2018-08-12T18:40:11.588Z,46.90
2018-08-12T18:42:40.743Z,46.90
2018-08-12T18:45:09.818Z,47.40
2018-08-12T18:47:40.645Z,47.60
2018-08-12T18:50:11.254Z,47.60
2018-08-12T18:52:40.974Z,47.80
2018-08-12T18:55:11.847Z,48.20
2018-08-12T18:57:40.904Z,48.50
2018-08-12T19:00:12.309Z,48.50
2018-08-12T19:02:41.446Z,49.20
2018-08-12T19:05:11.836Z,49.20
2018-08-12T19:07:42.269Z,49.50
2018-08-12T19:10:12.412Z,49.60
2018-08-12T19:12:42.307Z,50.10
2018-08-12T19:15:12.834Z,49.50
2018-08-12T19:17:41.971Z,50.10
2018-08-12T19:20:11.768Z,50.50
2018-08-12T19:22:40.859Z,50.70
2018-08-12T19:38:14.440Z,50.70
2018-08-12T19:40:43.762Z,51.20
2018-08-12T19:43:13.363Z,53.10
2018-08-12T19:45:43.367Z,53.40
2018-08-12T19:48:12.994Z,52.80
2018-08-12T19:50:42.142Z,53.10
2018-08-12T19:53:11.733Z,53.10
2018-08-12T19:55:41.554Z,53.20
2018-08-12T19:58:10.756Z,53.60
2018-08-12T20:00:40.632Z,53.40
2018-08-12T20:03:09.680Z,53.00
2018-08-12T20:05:40.179Z,52.80
2018-08-12T20:08:09.203Z,53.30
2018-08-12T20:10:38.747Z,54.30
2018-08-12T20:13:07.828Z,54.60
2018-08-12T20:15:36.880Z,54.80
2018-08-12T20:18:06.029Z,55.10
2018-08-12T20:20:35.119Z,55.00
2018-08-12T20:23:04.203Z,55.40
2018-08-12T20:25:33.641Z,56.60
2018-08-12T20:28:03.541Z,57.00
2018-08-12T20:30:32.601Z,57.20
2018-08-12T20:33:01.736Z,57.20
2018-08-12T20:35:30.846Z,57.40
2018-08-12T20:37:59.918Z,57.50
2018-08-12T20:40:29.737Z,58.00
2018-08-12T20:42:58.845Z,58.40
2018-08-12T20:45:29.265Z,58.20
2018-08-12T20:47:58.524Z,57.70
2018-08-12T20:50:29.153Z,58.10
2018-08-12T20:52:58.366Z,57.80
2018-08-12T20:55:27.458Z,58.00
2018-08-12T20:58:00.229Z,58.00
2018-08-12T21:00:29.289Z,56.80
2018-08-12T21:02:58.399Z,57.50
2018-08-12T21:05:27.453Z,58.10
2018-08-12T21:07:56.517Z,58.60
2018-08-12T21:10:25.565Z,58.90
2018-08-12T21:12:54.677Z,59.20
2018-08-12T21:15:24.277Z,59.80
2018-08-12T21:17:53.386Z,61.20
2018-08-12T21:20:23.135Z,60.40
2018-08-12T21:22:52.294Z,60.30
2018-08-12T21:25:21.984Z,60.90
2018-08-12T21:27:51.139Z,61.20
2018-08-12T21:30:20.342Z,61.20
2018-08-12T21:32:49.378Z,60.90
2018-08-12T21:35:18.474Z,60.30
2018-08-12T21:37:48.171Z,60.30
2018-08-12T21:40:17.480Z,60.40
2018-08-12T21:42:46.544Z,60.20
2018-08-12T21:45:15.657Z,59.80
2018-08-12T21:47:44.712Z,59.60
2018-08-12T21:50:13.753Z,59.50
2018-08-12T21:52:42.807Z,59.60
2018-08-12T21:55:11.949Z,59.50
2018-08-12T21:57:41.036Z,59.70
2018-08-12T22:00:13.120Z,59.10
2018-08-12T22:02:42.793Z,58.80
2018-08-12T22:05:11.863Z,59.10
2018-08-12T22:07:40.953Z,58.60
2018-08-12T22:10:13.076Z,58.80
2018-08-12T22:12:42.133Z,59.00
2018-08-12T22:15:11.188Z,58.70
2018-08-12T22:17:40.324Z,59.10
2018-08-12T22:20:09.480Z,58.70
2018-08-12T22:22:38.543Z,58.50
2018-08-12T22:25:07.797Z,58.80
2018-08-12T22:27:36.870Z,58.30
2018-08-12T22:30:10.333Z,57.20
2018-08-12T22:32:40.008Z,57.40
2018-08-12T22:35:09.193Z,55.90
2018-08-12T22:37:38.168Z,57.10
2018-08-12T22:40:13.913Z,57.50
2018-08-12T22:42:43.093Z,56.90
2018-08-12T22:45:12.709Z,55.20
2018-08-12T22:47:42.175Z,57.10
2018-08-12T22:50:11.185Z,57.10
2018-08-12T22:52:40.281Z,57.10
2018-08-12T22:55:10.148Z,56.00
2018-08-12T22:57:39.212Z,56.40
2018-08-12T23:00:10.739Z,55.60
2018-08-12T23:02:39.855Z,54.90
2018-08-12T23:05:08.986Z,55.30
2018-08-12T23:07:38.835Z,55.70
2018-08-12T23:10:09.084Z,55.90
2018-08-12T23:12:38.212Z,56.40
2018-08-12T23:15:18.313Z,56.10
2018-08-12T23:17:47.401Z,56.50
2018-08-12T23:20:16.450Z,56.00
2018-08-12T23:22:47.046Z,56.10
2018-08-12T23:25:16.098Z,56.10
2018-08-12T23:27:45.124Z,56.50
2018-08-12T23:30:14.173Z,56.30
2018-08-12T23:32:43.261Z,57.10
2018-08-12T23:35:12.914Z,56.70
2018-08-12T23:37:41.961Z,57.00
2018-08-12T23:40:11.102Z,57.00
2018-08-12T23:42:40.104Z,57.00
2018-08-12T23:45:09.135Z,57.10
2018-08-12T23:47:38.158Z,56.30
2018-08-12T23:50:07.207Z,56.60
2018-08-12T23:52:36.189Z,57.10
2018-08-12T23:55:05.693Z,57.30
2018-08-12T23:57:34.672Z,57.40
